Time;durP1;ratioP1;P1;durP2;ratioP2;P2;SDS_P1;SDS_P2;PMS_P1;PMS_P2;Temp;Humidity;BMP_temperature;BMP_pressure;BME280_temperature;BME280_humidity;BME280_pressure;Samples;Min_cycle;Max_cycle;Signal;HPM_P1;HPM_P2
2024/04/13 00:01:21;;;;;;;1.83;1.37;;;;;;;14.74;100.00;101913.53;6582931;21;20467;-69
2024/04/13 00:03:58;;;;;;;4.53;2.07;;;;;;;14.71;100.00;101922.13;6580217;21;20495;-70
2024/04/13 00:06:39;;;;;;;3.47;1.43;;;;;;;14.64;100.00;101923.97;6580156;21;20490;-69
2024/04/13 00:09:18;;;;;;;1.30;1.00;;;;;;;14.57;100.00;101925.84;6577886;21;20466;-69
2024/04/13 00:11:59;;;;;;;2.33;1.80;;;;;;;14.44;100.00;101931.19;6577766;21;20486;-69
2024/04/13 00:14:39;;;;;;;3.27;1.97;;;;;;;14.51;100.00;101923.91;6577594;21;20487;-67
2024/04/13 00:17:23;;;;;;;1.97;1.70;;;;;;;14.52;100.00;101917.44;6577411;21;20439;-68
2024/04/13 00:19:55;;;;;;;2.90;1.30;;;;;;;14.52;100.00;101911.97;6577448;21;20499;-68
2024/04/13 00:22:40;;;;;;;2.17;1.53;;;;;;;14.55;100.00;101914.28;6577611;21;20475;-68
2024/04/13 00:25:13;;;;;;;1.87;1.70;;;;;;;14.56;100.00;101905.06;6577492;21;20458;-68
2024/04/13 00:27:56;;;;;;;3.47;1.80;;;;;;;14.45;100.00;101906.50;6577336;21;20498;-68
2024/04/13 00:30:37;;;;;;;2.20;2.00;;;;;;;14.38;100.00;101900.16;6579266;21;20496;-70
2024/04/13 00:33:17;;;;;;;3.57;3.23;;;;;;;14.39;100.00;101904.56;6575950;21;20431;-68
2024/04/13 00:35:50;;;;;;;2.90;1.87;;;;;;;14.42;100.00;101911.53;6577748;21;20503;-66
2024/04/13 00:38:28;;;;;;;3.40;2.50;;;;;;;14.43;100.00;101903.13;6580314;21;20515;-68
2024/04/13 00:41:08;;;;;;;3.47;1.73;;;;;;;14.34;100.00;101894.25;6577959;21;20454;-67
2024/04/13 00:43:47;;;;;;;2.17;1.77;;;;;;;14.42;100.00;101896.03;6577603;21;20455;-68
2024/04/13 00:46:27;;;;;;;2.90;1.90;;;;;;;14.52;100.00;101898.38;6579249;21;20854;-67
2024/04/13 00:49:13;;;;;;;2.33;2.13;;;;;;;14.55;100.00;101898.78;6577415;21;20439;-68
2024/04/13 00:51:52;;;;;;;2.90;2.50;;;;;;;14.58;100.00;101892.06;6576710;21;20483;-67
2024/04/13 00:54:35;;;;;;;1.67;1.50;;;;;;;14.60;100.00;101884.56;6570951;21;20563;-68
2024/04/13 00:57:15;;;;;;;2.27;1.77;;;;;;;14.58;100.00;101881.19;6577337;21;20574;-69
2024/04/13 00:59:53;;;;;;;2.77;1.73;;;;;;;14.69;100.00;101880.59;6579162;21;20592;-68
2024/04/13 01:02:34;;;;;;;3.90;2.30;;;;;;;14.77;100.00;101881.25;6579565;21;20474;-68
2024/04/13 01:05:20;;;;;;;2.87;1.93;;;;;;;14.71;100.00;101886.69;6580409;21;20773;-67
2024/04/13 01:07:56;;;;;;;2.13;1.93;;;;;;;14.71;100.00;101887.53;6579627;21;20546;-69
2024/04/13 01:10:58;;;;;;;5.80;2.20;;;;;;;14.82;100.00;101880.63;6579318;21;20447;-67
2024/04/13 01:13:37;;;;;;;4.80;2.07;;;;;;;14.81;100.00;101876.25;6576990;21;20488;-69
2024/04/13 01:16:20;;;;;;;2.47;1.97;;;;;;;14.75;100.00;101885.22;6578362;21;20538;-69
2024/04/13 01:18:56;;;;;;;13.00;2.37;;;;;;;14.90;100.00;101882.34;6585636;21;20431;-69
2024/04/13 01:21:47;;;;;;;3.57;2.90;;;;;;;14.87;100.00;101885.44;6589949;21;20443;-69
2024/04/13 01:24:28;;;;;;;2.67;1.87;;;;;;;14.89;100.00;101884.22;6586093;21;20435;-69
2024/04/13 01:27:09;;;;;;;3.07;1.77;;;;;;;14.85;100.00;101877.50;6581802;21;20435;-68
2024/04/13 01:29:48;;;;;;;2.40;2.20;;;;;;;14.80;100.00;101874.56;6582167;21;20526;-68
2024/04/13 01:32:27;;;;;;;2.67;2.00;;;;;;;14.83;100.00;101878.72;6579909;21;20506;-66
2024/04/13 01:35:13;;;;;;;2.40;2.20;;;;;;;14.83;100.00;101884.19;6579356;21;20489;-68
2024/04/13 01:37:56;;;;;;;3.90;1.60;;;;;;;14.76;100.00;101889.63;6579580;21;20501;-69
2024/04/13 01:40:32;;;;;;;4.07;2.20;;;;;;;14.67;100.00;101885.41;6579026;21;20517;-69
2024/04/13 01:43:11;;;;;;;10.10;3.40;;;;;;;14.59;100.00;101885.59;6536865;21;20451;-68
2024/04/13 01:45:44;;;;;;;3.03;2.47;;;;;;;14.66;100.00;101889.19;6576980;21;20533;-68
2024/04/13 01:48:24;;;;;;;3.23;2.87;;;;;;;14.67;100.00;101896.28;6579485;21;20499;-69
2024/04/13 01:51:01;;;;;;;2.67;2.10;;;;;;;14.60;100.00;101900.91;6578958;21;20550;-68
2024/04/13 01:53:39;;;;;;;2.50;2.23;;;;;;;14.59;100.00;101910.09;6579381;21;20470;-68
2024/04/13 01:56:24;;;;;;;3.13;2.07;;;;;;;14.53;100.00;101903.59;6581293;21;20498;-69
2024/04/13 01:59:03;;;;;;;3.07;2.50;;;;;;;14.42;100.00;101904.19;6579364;21;20506;-69
2024/04/13 02:01:41;;;;;;;2.50;2.30;;;;;;;14.40;100.00;101894.53;6581229;21;20627;-69
2024/04/13 02:04:22;;;;;;;2.63;1.73;;;;;;;14.31;100.00;101897.41;6581562;21;20438;-70
2024/04/13 02:06:58;;;;;;;4.13;2.70;;;;;;;14.25;100.00;101900.91;6578915;21;20459;-70
2024/04/13 02:09:39;;;;;;;3.70;3.33;;;;;;;14.20;100.00;101900.69;6579398;21;20447;-69
2024/04/13 02:12:22;;;;;;;2.97;2.53;;;;;;;14.11;100.00;101901.91;6584350;21;20443;-70
2024/04/13 02:15:08;;;;;;;2.47;2.03;;;;;;;14.00;100.00;101905.19;6578512;21;20431;-70
2024/04/13 02:17:44;;;;;;;5.40;2.70;;;;;;;14.00;100.00;101912.50;6578685;21;20459;-69
2024/04/13 02:20:23;;;;;;;2.60;2.10;;;;;;;13.94;100.00;101908.72;6579906;21;20767;-70
2024/04/13 02:23:13;;;;;;;2.10;1.57;;;;;;;13.86;100.00;101908.84;6579584;21;20789;-69
2024/04/13 02:25:54;;;;;;;4.13;2.57;;;;;;;13.90;100.00;101907.41;6578497;21;20523;-69
2024/04/13 02:28:34;;;;;;;5.17;3.30;;;;;;;13.87;100.00;101905.09;6578811;21;20479;-68
2024/04/13 02:31:19;;;;;;;2.83;2.00;;;;;;;13.78;100.00;101900.84;6580491;21;20439;-70
2024/04/13 02:34:00;;;;;;;2.40;2.10;;;;;;;13.64;100.00;101899.09;6578612;21;20527;-69
2024/04/13 02:36:38;;;;;;;2.80;1.43;;;;;;;13.58;100.00;101895.28;6578786;21;20832;-70
2024/04/13 02:39:18;;;;;;;2.63;2.00;;;;;;;13.49;100.00;101896.47;6578298;21;20570;-69
2024/04/13 02:42:04;;;;;;;2.13;1.50;;;;;;;13.46;100.00;101899.56;6578692;21;20589;-69
2024/04/13 02:44:48;;;;;;;4.20;3.30;;;;;;;13.32;100.00;101890.44;6578619;21;20566;-70
2024/04/13 02:47:29;;;;;;;3.73;3.10;;;;;;;13.30;100.00;101891.69;6580854;21;20550;-70
2024/04/13 02:50:09;;;;;;;3.57;3.20;;;;;;;13.32;100.00;101885.00;6578850;21;20439;-69
2024/04/13 02:53:00;;;;;;;4.47;3.33;;;;;;;13.34;100.00;101880.22;6580791;21;20450;-69
2024/04/13 02:56:01;;;;;;;4.90;3.00;;;;;;;13.35;100.00;101879.19;6580271;21;20487;-70
2024/04/13 02:58:50;;;;;;;3.27;2.77;;;;;;;13.30;100.00;101878.94;6578164;21;20556;-70
2024/04/13 03:01:47;;;;;;;3.20;2.57;;;;;;;13.24;100.00;101878.88;6575795;21;20450;-69
2024/04/13 03:04:28;;;;;;;8.87;3.97;;;;;;;13.18;100.00;101872.34;6538292;21;20809;-69
2024/04/13 03:07:15;;;;;;;3.47;2.50;;;;;;;12.97;100.00;101875.06;6580194;21;20431;-69
2024/04/13 03:09:56;;;;;;;6.67;3.70;;;;;;;12.99;100.00;101881.97;6577924;21;20507;-69
2024/04/13 03:12:28;;;;;;;3.73;3.27;;;;;;;13.00;100.00;101877.38;6578531;21;21009;-70
2024/04/13 03:15:09;;;;;;;3.33;2.37;;;;;;;13.03;100.00;101869.66;6579590;21;20454;-70
2024/04/13 03:17:46;;;;;;;4.50;2.70;;;;;;;13.15;100.00;101878.19;6579463;21;20435;-70
2024/04/13 03:21:21;;;;;;;4.33;2.40;;;;;;;13.15;100.00;101875.47;6579960;21;20471;-71
2024/04/13 03:24:03;;;;;;;3.83;3.53;;;;;;;13.14;100.00;101879.22;6578135;21;20518;-69
2024/04/13 03:26:49;;;;;;;2.80;1.70;;;;;;;13.08;100.00;101874.53;6578032;21;20500;-69
2024/04/13 03:29:30;;;;;;;3.97;3.53;;;;;;;13.18;100.00;101885.94;6577701;21;20498;-70
2024/04/13 03:32:16;;;;;;;6.13;3.47;;;;;;;12.99;100.00;101879.25;6580074;21;20938;-70
2024/04/13 03:35:11;;;;;;;3.37;3.07;;;;;;;13.03;100.00;101885.97;6580572;21;20479;-70
2024/04/13 03:37:49;;;;;;;3.10;2.53;;;;;;;12.98;100.00;101876.72;6580105;21;20498;-70
2024/04/13 03:40:34;;;;;;;4.17;2.40;;;;;;;12.95;100.00;101879.84;6577732;21;20467;-70
2024/04/13 03:43:16;;;;;;;7.60;3.17;;;;;;;12.96;100.00;101878.81;6577776;21;20486;-69
2024/04/13 03:46:03;;;;;;;4.10;3.13;;;;;;;12.87;100.00;101875.38;6579696;21;20954;-70
2024/04/13 03:48:41;;;;;;;5.73;4.40;;;;;;;12.83;100.00;101884.13;6577413;21;20467;-69
2024/04/13 03:51:25;;;;;;;5.13;2.73;;;;;;;12.84;100.00;101885.78;6579664;21;20474;-71
2024/04/13 03:54:09;;;;;;;2.23;2.00;;;;;;;12.94;100.00;101889.00;6577906;21;20459;-70
2024/04/13 03:56:48;;;;;;;4.20;2.97;;;;;;;12.92;100.00;101880.22;6579479;21;20961;-69
2024/04/13 03:59:28;;;;;;;5.97;3.63;;;;;;;12.90;100.00;101874.13;6577761;21;20455;-70
2024/04/13 04:02:07;;;;;;;6.83;3.47;;;;;;;12.95;100.00;101877.13;6577827;21;20462;-70
2024/04/13 04:05:10;;;;;;;3.73;2.50;;;;;;;12.90;100.00;101874.13;6578433;21;20434;-69
2024/04/13 04:07:59;;;;;;;4.60;3.23;;;;;;;12.75;100.00;101878.78;6578782;21;20451;-70
2024/04/13 04:11:02;;;;;;;3.70;2.33;;;;;;;12.79;100.00;101877.34;6577110;21;20500;-70
2024/04/13 04:13:45;;;;;;;3.27;2.57;;;;;;;12.79;100.00;101871.94;6578135;21;20510;-70
2024/04/13 04:16:30;;;;;;;3.90;3.20;;;;;;;12.90;100.00;101874.13;6577955;21;20459;-70
2024/04/13 04:19:17;;;;;;;8.40;2.93;;;;;;;12.89;100.00;101877.88;6578215;21;20868;-70
2024/04/13 04:21:58;;;;;;;5.30;2.80;;;;;;;13.02;100.00;101884.28;6578303;21;20481;-69
2024/04/13 04:24:45;;;;;;;5.13;2.63;;;;;;;13.08;100.00;101879.94;6537925;21;20544;-69
2024/04/13 04:27:32;;;;;;;3.63;3.20;;;;;;;13.15;100.00;101880.06;6580829;21;20559;-70
2024/04/13 04:30:20;;;;;;;5.53;3.13;;;;;;;13.18;100.00;101872.34;6578012;21;20438;-69
2024/04/13 04:32:57;;;;;;;5.67;2.87;;;;;;;13.27;100.00;101876.59;6578128;21;20463;-70
2024/04/13 04:35:33;;;;;;;3.13;2.83;;;;;;;13.28;100.00;101872.84;6577445;21;20430;-71
2024/04/13 04:38:23;;;;;;;2.80;2.50;;;;;;;13.36;100.00;101878.13;6577625;21;20442;-71
2024/04/13 04:41:05;;;;;;;3.63;2.90;;;;;;;13.40;100.00;101876.72;6536995;21;20455;-70
2024/04/13 04:43:52;;;;;;;3.60;3.13;;;;;;;13.54;100.00;101877.69;6578678;21;20486;-70
2024/04/13 04:46:28;;;;;;;6.47;3.80;;;;;;;13.68;100.00;101878.59;6577486;21;20431;-71
2024/04/13 04:49:04;;;;;;;3.80;3.50;;;;;;;13.82;100.00;101885.81;6577713;21;20479;-70
2024/04/13 04:51:36;;;;;;;3.53;2.67;;;;;;;13.89;100.00;101886.72;6576928;21;20518;-69
2024/04/13 04:54:16;;;;;;;6.47;3.47;;;;;;;13.93;100.00;101874.38;6577054;21;20540;-69
2024/04/13 04:57:11;;;;;;;5.37;3.70;;;;;;;14.10;100.00;101878.44;6577075;21;20818;-67
2024/04/13 04:59:54;;;;;;;3.47;3.17;;;;;;;14.09;100.00;101882.19;6579523;21;20479;-70
2024/04/13 05:02:37;;;;;;;7.73;3.50;;;;;;;14.10;100.00;101874.88;6579172;21;20475;-71
2024/04/13 05:05:23;;;;;;;4.23;2.63;;;;;;;14.17;100.00;101884.78;6580002;21;20497;-70
2024/04/13 05:08:02;;;;;;;5.00;4.50;;;;;;;14.41;100.00;101896.22;6583565;21;20500;-70
2024/04/13 05:10:40;;;;;;;5.27;4.10;;;;;;;14.71;100.00;101884.81;6582004;21;20930;-70
2024/04/13 05:13:16;;;;;;;4.07;3.07;;;;;;;14.85;100.00;101884.84;6580732;21;20447;-68
2024/04/13 05:16:08;;;;;;;4.90;2.90;;;;;;;15.02;100.00;101889.69;6538685;21;20439;-70
2024/04/13 05:18:55;;;;;;;4.93;3.27;;;;;;;15.13;100.00;101890.97;6581686;21;20519;-70
2024/04/13 05:21:34;;;;;;;8.10;3.90;;;;;;;15.08;100.00;101888.84;6581390;21;20506;-69
2024/04/13 05:24:17;;;;;;;5.80;3.00;;;;;;;15.01;100.00;101892.59;6579310;21;20439;-68
2024/04/13 05:26:56;;;;;;;3.80;2.93;;;;;;;15.01;100.00;101888.00;6578581;21;20443;-69
2024/04/13 05:29:39;;;;;;;3.73;2.70;;;;;;;15.24;100.00;101893.06;6538004;21;20544;-70
2024/04/13 05:32:20;;;;;;;3.97;3.60;;;;;;;15.37;100.00;101884.03;6539419;21;21009;-71
2024/04/13 05:35:02;;;;;;;3.80;2.07;;;;;;;15.23;100.00;101889.50;6578576;21;20474;-70
2024/04/13 05:37:38;;;;;;;3.40;2.93;;;;;;;15.15;100.00;101878.78;6581167;21;20462;-70
2024/04/13 05:40:18;;;;;;;5.07;3.00;;;;;;;15.19;100.00;101885.53;6579107;21;20953;-71
2024/04/13 05:42:57;;;;;;;3.30;2.40;;;;;;;15.21;100.00;101894.31;6579470;21;20435;-70
2024/04/13 05:45:43;;;;;;;5.20;2.40;;;;;;;15.17;100.00;101893.06;6579265;21;21002;-71
2024/04/13 05:48:22;;;;;;;3.60;2.30;;;;;;;15.43;100.00;101896.84;6579685;21;20493;-70
2024/04/13 05:51:14;;;;;;;4.33;2.53;;;;;;;15.56;100.00;101897.72;6581253;21;20450;-70
2024/04/13 05:53:49;;;;;;;5.80;4.23;;;;;;;15.64;100.00;101896.66;6579428;21;20474;-70
2024/04/13 05:56:28;;;;;;;5.57;2.93;;;;;;;15.78;99.98;101894.78;6580695;21;20447;-69
2024/04/13 05:59:06;;;;;;;4.60;2.73;;;;;;;15.94;99.21;101884.22;6579353;21;20968;-70
2024/04/13 06:01:51;;;;;;;4.03;2.63;;;;;;;16.00;98.12;101883.38;6580552;21;20446;-69
2024/04/13 06:04:28;;;;;;;4.27;3.03;;;;;;;15.85;98.49;101876.47;6577511;21;20475;-69
2024/04/13 06:07:08;;;;;;;4.57;3.73;;;;;;;15.79;98.81;101885.50;6577698;21;20565;-71
2024/04/13 06:09:42;;;;;;;7.23;4.10;;;;;;;15.69;99.05;101887.81;6579199;21;20443;-70
2024/04/13 06:12:23;;;;;;;4.07;3.20;;;;;;;15.80;99.34;101888.03;6577899;21;20515;-70
2024/04/13 06:15:03;;;;;;;4.50;2.10;;;;;;;15.90;98.50;101887.59;6577818;21;20828;-70
2024/04/13 06:20:49;;;;;;;3.00;2.70;;;;;;;16.21;96.95;101895.09;6578194;21;20582;-70
2024/04/13 06:23:26;;;;;;;3.63;2.43;;;;;;;16.37;95.55;101897.31;6578903;21;20424;-70
2024/04/13 06:26:57;;;;;;;2.73;2.43;;;;;;;16.40;93.90;101903.22;6536987;21;20490;-69
2024/04/13 06:29:30;;;;;;;3.67;3.37;;;;;;;16.64;94.43;101896.19;6578154;21;20840;-70
2024/04/13 06:32:05;;;;;;;3.63;2.60;;;;;;;16.80;92.20;101906.59;6578811;21;20523;-68
2024/04/13 06:34:42;;;;;;;6.53;3.03;;;;;;;16.82;92.37;101920.91;6578838;21;20532;-69
2024/04/13 06:37:22;;;;;;;5.20;3.03;;;;;;;16.93;91.76;101902.97;6579702;21;20438;-70
2024/04/13 06:40:07;;;;;;;3.17;2.87;;;;;;;17.00;90.19;101906.47;6577732;21;20447;-70
2024/04/13 06:42:49;;;;;;;3.60;3.00;;;;;;;17.20;89.74;101895.41;6580820;21;20846;-70
2024/04/13 06:45:35;;;;;;;4.57;2.80;;;;;;;17.13;89.55;101883.69;6578331;21;20561;-70
2024/04/13 06:48:11;;;;;;;1.73;1.43;;;;;;;17.28;89.38;101881.47;6576936;21;20439;-68
2024/04/13 06:50:52;;;;;;;7.00;2.57;;;;;;;17.43;88.81;101873.75;6577316;21;20451;-70
2024/04/13 06:53:27;;;;;;;5.53;2.20;;;;;;;17.61;87.76;101865.63;6578159;21;20455;-70
2024/04/13 06:56:09;;;;;;;3.60;2.70;;;;;;;17.76;87.72;101868.88;6578136;21;20431;-70
2024/04/13 06:58:54;;;;;;;5.13;3.13;;;;;;;17.87;86.08;101869.16;6578275;21;20435;-70
2024/04/13 07:01:33;;;;;;;4.40;4.00;;;;;;;17.81;85.89;101871.72;6577921;21;20514;-70
2024/04/13 07:04:17;;;;;;;2.90;2.37;;;;;;;17.70;86.24;101874.41;6578232;21;20454;-68
2024/04/13 07:07:03;;;;;;;4.43;3.07;;;;;;;17.91;85.86;101867.66;6577869;21;20765;-69
2024/04/13 07:09:44;;;;;;;4.80;2.50;;;;;;;18.07;85.47;101869.78;6580346;21;20430;-71
2024/04/13 07:12:16;;;;;;;2.83;1.70;;;;;;;18.22;84.11;101862.84;6577978;21;20467;-71
2024/04/13 07:15:02;;;;;;;3.53;2.00;;;;;;;18.47;82.74;101868.22;6578368;21;20479;-69
2024/04/13 07:17:38;;;;;;;3.73;2.00;;;;;;;18.69;81.09;101865.03;6578665;21;20767;-70
2024/04/13 07:20:19;;;;;;;12.27;4.40;;;;;;;18.80;80.03;101864.22;6577317;21;20497;-69
2024/04/13 07:23:03;;;;;;;4.00;3.13;;;;;;;18.96;79.06;101855.34;6580620;21;20439;-69
2024/04/13 07:28:35;;;;;;;4.50;2.37;;;;;;;18.87;78.22;101852.09;6577331;21;20541;-69
2024/04/13 07:31:14;;;;;;;3.90;2.63;;;;;;;18.78;79.11;101856.25;6577233;21;20463;-68
2024/04/13 07:33:53;;;;;;;2.80;2.30;;;;;;;18.99;78.78;101861.19;6577904;21;20423;-70
2024/04/13 07:36:29;;;;;;;3.50;3.00;;;;;;;19.17;77.52;101863.00;6534854;21;20443;-70
2024/04/13 07:39:10;;;;;;;4.23;2.97;;;;;;;19.25;77.15;101868.16;6577785;21;20455;-70
2024/04/13 07:41:51;;;;;;;9.43;3.33;;;;;;;18.99;76.54;101852.13;6580049;21;20521;-69
2024/04/13 07:44:34;;;;;;;3.30;2.33;;;;;;;19.11;77.13;101842.03;6577586;21;20484;-69
2024/04/13 07:47:21;;;;;;;2.63;2.43;;;;;;;19.08;76.83;101842.47;6577875;21;20864;-68
2024/04/13 07:50:10;;;;;;;3.43;2.13;;;;;;;19.21;76.54;101847.78;6577066;21;20439;-69
2024/04/13 07:52:55;;;;;;;3.20;2.20;;;;;;;19.28;76.21;101840.25;6577463;21;20431;-68
2024/04/13 07:55:50;;;;;;;6.20;2.67;;;;;;;19.45;75.80;101845.91;6576677;21;20464;-69
2024/04/13 07:58:44;;;;;;;7.13;2.30;;;;;;;19.94;74.58;101845.38;6579630;21;20499;-66
2024/04/13 08:01:27;;;;;;;4.00;3.60;;;;;;;20.42;72.16;101851.66;6577759;21;20796;-68
2024/04/13 08:04:10;;;;;;;2.43;2.20;;;;;;;20.19;71.38;101847.84;6579698;21;20431;-68
2024/04/13 08:06:51;;;;;;;3.13;2.10;;;;;;;20.48;70.29;101856.19;6577620;21;20459;-68
2024/04/13 08:09:43;;;;;;;4.40;2.87;;;;;;;20.40;69.25;101849.13;6577214;21;20515;-69
2024/04/13 08:12:33;;;;;;;7.47;4.83;;;;;;;20.13;70.25;101848.00;6577054;21;20795;-69
2024/04/13 08:15:23;;;;;;;5.40;4.00;;;;;;;19.97;70.80;101844.09;6578041;21;20466;-68
2024/04/13 08:21:02;;;;;;;4.33;3.67;;;;;;;20.03;72.01;101843.13;6577585;21;20443;-68
2024/04/13 08:23:45;;;;;;;3.77;2.20;;;;;;;19.87;72.67;101847.44;6575600;21;20561;-69
2024/04/13 08:26:26;;;;;;;6.47;4.30;;;;;;;19.52;72.73;101847.47;6577381;21;20430;-67
2024/04/13 08:29:26;;;;;;;3.00;2.10;;;;;;;19.75;72.43;101840.31;6579958;21;20566;-71
2024/04/13 08:32:05;;;;;;;2.20;1.80;;;;;;;20.37;70.15;101835.91;6577456;21;20463;-69
2024/04/13 08:34:53;;;;;;;3.20;2.07;;;;;;;21.01;67.35;101844.81;6621670;21;20442;-67
2024/04/13 08:37:46;;;;;;;5.90;3.27;;;;;;;20.92;64.56;101847.09;6577243;21;20455;-68
2024/04/13 08:40:26;;;;;;;3.50;2.23;;;;;;;20.42;67.48;101837.91;6576491;21;21012;-68
2024/04/13 08:43:06;;;;;;;2.03;1.83;;;;;;;20.17;68.91;101852.78;6576907;21;20492;-70
2024/04/13 08:45:51;;;;;;;5.30;2.47;;;;;;;19.86;68.90;101848.50;6577389;21;20467;-68
2024/04/13 08:48:35;;;;;;;2.50;1.70;;;;;;;19.76;69.43;101851.03;6577594;21;20826;-68
2024/04/13 08:51:20;;;;;;;3.63;1.83;;;;;;;19.84;68.99;101849.84;6536588;21;20455;-69
2024/04/13 08:54:08;;;;;;;2.23;1.17;;;;;;;19.88;69.26;101856.53;6577981;21;20507;-70
2024/04/13 08:56:54;;;;;;;1.70;1.20;;;;;;;20.33;68.17;101854.78;6579019;21;20456;-69
2024/04/13 08:59:39;;;;;;;2.00;1.40;;;;;;;20.54;66.15;101849.69;6576657;21;21002;-67
2024/04/13 09:02:34;;;;;;;3.97;1.90;;;;;;;20.78;65.60;101846.59;6576899;21;20997;-69
2024/04/13 09:05:15;;;;;;;7.83;2.33;;;;;;;20.41;65.40;101855.47;6577622;21;20554;-66
2024/04/13 09:07:59;;;;;;;2.07;1.77;;;;;;;20.54;66.10;101844.19;6576611;21;21071;-68
2024/04/13 09:10:53;;;;;;;2.63;1.40;;;;;;;21.06;64.59;101851.19;6576840;21;20523;-68
2024/04/13 09:13:26;;;;;;;2.57;1.80;;;;;;;21.02;63.72;101840.94;6577183;21;20463;-69
2024/04/13 09:16:08;;;;;;;3.20;2.57;;;;;;;20.72;63.99;101830.25;6574510;21;20504;-69
2024/04/13 09:18:53;;;;;;;4.27;2.50;;;;;;;20.78;62.64;101837.50;6577402;21;20881;-68
2024/04/13 09:21:30;;;;;;;4.50;1.97;;;;;;;20.77;62.48;101838.56;6576549;21;20582;-69
2024/04/13 09:24:04;;;;;;;4.83;2.63;;;;;;;21.45;61.45;101834.81;6576563;21;20455;-70
2024/04/13 09:26:44;;;;;;;3.13;2.60;;;;;;;21.87;59.64;101829.66;6576207;21;20505;-70
2024/04/13 09:29:26;;;;;;;5.80;2.03;;;;;;;22.29;57.37;101829.94;6578642;21;20569;-71
2024/04/13 09:31:58;;;;;;;3.30;2.30;;;;;;;21.90;57.92;101818.94;6575821;21;20717;-69
2024/04/13 09:34:31;;;;;;;2.37;1.40;;;;;;;21.58;58.43;101824.31;6575716;21;20459;-70
2024/04/13 09:37:10;;;;;;;2.53;2.30;;;;;;;20.70;60.77;101822.25;6576010;21;20558;-70
2024/04/13 09:39:41;;;;;;;4.20;2.37;;;;;;;20.77;60.70;101805.56;6575746;21;20554;-71
2024/04/13 09:42:14;;;;;;;2.77;2.30;;;;;;;21.17;60.15;101800.78;6578387;21;20467;-69
2024/04/13 09:44:43;;;;;;;3.50;2.50;;;;;;;21.45;60.07;101808.09;6578352;21;20444;-70
2024/04/13 09:47:16;;;;;;;2.80;2.13;;;;;;;21.58;59.42;101801.44;6577168;21;20825;-70
2024/04/13 09:49:52;;;;;;;3.20;2.20;;;;;;;21.77;59.48;101805.56;6577894;21;20427;-70
2024/04/13 09:52:31;;;;;;;3.93;1.83;;;;;;;21.92;58.52;101803.00;6578440;21;20487;-69
2024/04/13 09:55:02;;;;;;;3.90;2.27;;;;;;;22.08;58.31;101793.03;6578938;21;20835;-71
2024/04/13 09:57:35;;;;;;;2.40;1.77;;;;;;;22.21;57.98;101800.09;6580004;21;20848;-68
2024/04/13 10:00:07;;;;;;;2.50;1.77;;;;;;;22.19;56.92;101797.56;6580264;21;20558;-71
2024/04/13 10:02:41;;;;;;;4.40;2.53;;;;;;;22.21;56.82;101811.13;6578273;21;20769;-70
2024/04/13 10:05:15;;;;;;;3.93;3.30;;;;;;;21.95;57.92;101805.28;6577371;21;20458;-71
2024/04/13 10:07:48;;;;;;;2.30;1.73;;;;;;;22.00;57.80;101796.25;6577426;21;20419;-69
2024/04/13 10:10:19;;;;;;;2.33;2.13;;;;;;;22.25;57.09;101801.22;6579921;21;20419;-71
2024/04/13 10:12:54;;;;;;;2.67;2.10;;;;;;;22.37;55.02;101791.72;6578163;21;20451;-69
2024/04/13 10:15:27;;;;;;;3.07;2.00;;;;;;;22.17;54.27;101796.19;6577799;21;20447;-68
2024/04/13 10:18:00;;;;;;;2.80;1.80;;;;;;;21.50;55.71;101794.41;6577650;21;20502;-70
2024/04/13 10:20:35;;;;;;;1.50;1.27;;;;;;;21.85;55.41;101788.56;6577563;21;20471;-69
2024/04/13 10:23:12;;;;;;;1.80;1.27;;;;;;;21.87;55.92;101799.34;6578262;21;20544;-70
2024/04/13 10:25:42;;;;;;;2.33;1.57;;;;;;;22.05;56.64;101791.63;6577195;21;20471;-69
2024/04/13 10:28:23;;;;;;;1.83;1.60;;;;;;;21.81;54.82;101790.19;6576804;21;20471;-70
2024/04/13 10:30:55;;;;;;;2.20;1.30;;;;;;;21.43;55.26;101776.41;6577179;21;20559;-70
2024/04/13 10:33:30;;;;;;;3.97;2.77;;;;;;;21.51;55.41;101773.22;6580183;21;20424;-70
2024/04/13 10:36:07;;;;;;;2.40;1.80;;;;;;;21.58;55.54;101768.38;6579916;21;20426;-71
2024/04/13 10:38:40;;;;;;;4.03;2.47;;;;;;;21.34;55.27;101761.41;6578016;21;20850;-70
2024/04/13 10:41:31;;;;;;;16.23;8.27;;;;;;;21.54;55.16;101772.72;6579544;21;20523;-71
2024/04/13 10:44:04;;;;;;;4.60;1.83;;;;;;;22.08;52.99;101769.06;6577658;21;20447;-71
2024/04/13 10:46:35;;;;;;;2.57;2.07;;;;;;;21.94;51.72;101765.03;6577318;21;20775;-70
2024/04/13 10:49:10;;;;;;;2.87;1.57;;;;;;;22.08;50.52;101769.06;6577596;21;20498;-70
2024/04/13 10:51:46;;;;;;;2.13;1.77;;;;;;;22.49;50.68;101777.78;6581532;21;20515;-70
2024/04/13 10:54:20;;;;;;;4.07;2.20;;;;;;;22.38;51.32;101757.53;6579278;21;20518;-71
2024/04/13 10:56:50;;;;;;;2.30;1.80;;;;;;;21.91;52.85;101765.50;6577568;21;20475;-70
2024/04/13 10:59:36;;;;;;;2.07;1.40;;;;;;;22.19;52.91;101769.16;6577300;21;20506;-70
2024/04/13 11:02:14;;;;;;;2.03;1.37;;;;;;;22.59;52.15;101764.09;6579736;21;20520;-68
2024/04/13 11:04:55;;;;;;;3.57;1.60;;;;;;;22.86;51.94;101775.97;6577944;21;20521;-67
2024/04/13 11:07:28;;;;;;;3.10;2.33;;;;;;;23.32;49.94;101770.81;6579939;21;20748;-67
2024/04/13 11:10:12;;;;;;;2.00;1.80;;;;;;;23.25;49.10;101762.75;6536908;21;20504;-66
2024/04/13 11:12:52;;;;;;;2.50;2.00;;;;;;;23.37;49.64;101757.88;6579871;21;20507;-68
2024/04/13 11:15:43;;;;;;;1.87;1.30;;;;;;;22.52;50.39;101757.94;6578032;21;20460;-67
2024/04/13 11:18:18;;;;;;;2.03;1.83;;;;;;;22.37;50.60;101755.88;6578870;21;20485;-68
2024/04/13 11:21:04;;;;;;;2.10;1.27;;;;;;;22.53;50.16;101748.59;6578361;21;20470;-67
2024/04/13 11:23:44;;;;;;;2.50;1.00;;;;;;;22.78;47.75;101751.63;6579971;21;20459;-69
2024/04/13 11:26:31;;;;;;;1.40;1.30;;;;;;;22.77;46.83;101743.59;6580833;21;20489;-67
2024/04/13 11:29:08;;;;;;;5.63;1.87;;;;;;;22.89;47.49;101742.34;6577157;21;20471;-67
2024/04/13 11:31:45;;;;;;;2.63;1.67;;;;;;;23.09;47.37;101740.81;6577326;21;20981;-67
2024/04/13 11:34:20;;;;;;;3.20;1.50;;;;;;;23.09;47.66;101732.53;6577626;21;20463;-68
2024/04/13 11:37:11;;;;;;;2.20;1.03;;;;;;;22.87;46.94;101730.72;6580296;21;20446;-68
2024/04/13 11:39:57;;;;;;;1.93;0.70;;;;;;;22.36;45.84;101721.13;6577423;21;20431;-67
2024/04/13 11:42:31;;;;;;;1.27;0.80;;;;;;;22.49;47.64;101725.38;6579610;21;20503;-67
2024/04/13 11:45:23;;;;;;;1.70;1.20;;;;;;;22.98;46.28;101730.78;6580048;21;20488;-68
2024/04/13 11:48:07;;;;;;;1.40;0.90;;;;;;;22.84;45.92;101722.97;6578218;21;20522;-68
2024/04/13 11:50:39;;;;;;;1.37;1.17;;;;;;;22.94;46.51;101712.00;6578105;21;20479;-66
2024/04/13 11:53:16;;;;;;;1.97;1.13;;;;;;;23.15;46.51;101712.13;6578382;21;20506;-68
2024/04/13 11:55:56;;;;;;;1.40;1.00;;;;;;;23.19;45.74;101713.28;6578062;21;20451;-65
2024/04/13 11:58:32;;;;;;;1.20;0.77;;;;;;;23.08;43.95;101712.38;6579699;21;20447;-67
2024/04/13 12:01:07;;;;;;;1.60;0.90;;;;;;;23.16;43.94;101702.75;6579650;21;20467;-69
2024/04/13 12:03:44;;;;;;;2.97;1.10;;;;;;;23.35;44.11;101701.22;6579871;21;20850;-68
2024/04/13 12:06:17;;;;;;;1.63;0.90;;;;;;;23.39;44.29;101692.13;6579389;21;20495;-67
2024/04/13 12:08:56;;;;;;;2.00;1.23;;;;;;;23.16;44.89;101688.94;6579217;21;20826;-67
2024/04/13 12:11:35;;;;;;;2.40;1.07;;;;;;;23.09;44.26;101694.69;6577596;21;20930;-67
2024/04/13 12:14:15;;;;;;;3.20;1.07;;;;;;;23.07;44.38;101687.78;6577008;21;20507;-67
2024/04/13 12:16:50;;;;;;;2.00;0.90;;;;;;;22.98;42.76;101689.38;6577199;21;20546;-68
2024/04/13 12:19:26;;;;;;;1.47;1.20;;;;;;;22.92;43.18;101680.25;6577319;21;20447;-67
2024/04/13 12:21:59;;;;;;;4.37;1.50;;;;;;;22.96;43.69;101686.88;6580173;21;20471;-69
2024/04/13 12:24:37;;;;;;;1.77;1.00;;;;;;;23.09;43.64;101680.88;6578662;21;20447;-67
2024/04/13 12:27:18;;;;;;;2.10;1.23;;;;;;;23.70;43.27;101682.09;6578165;21;20471;-68
2024/04/13 12:29:58;;;;;;;2.13;1.17;;;;;;;23.63;42.63;101681.50;6577188;21;20490;-68
2024/04/13 12:32:30;;;;;;;3.00;1.40;;;;;;;23.58;41.81;101678.69;6577004;21;20570;-68
2024/04/13 12:35:17;;;;;;;2.10;0.80;;;;;;;23.49;41.79;101671.19;6577470;21;20507;-68